createdAt,value
2019-02-28T00:01:33.073Z,7.23
2019-02-28T00:04:00.368Z,7.20
2019-02-28T00:06:27.738Z,5.87
2019-02-28T00:08:55.027Z,6.73
2019-02-28T00:11:22.285Z,7.17
2019-02-28T00:13:52.379Z,6.93
2019-02-28T00:16:18.819Z,6.67
2019-02-28T00:18:49.494Z,7.27
2019-02-28T00:21:15.397Z,7.30
2019-02-28T00:23:42.761Z,7.90
2019-02-28T00:26:11.732Z,6.70
2019-02-28T00:28:39.261Z,7.10
2019-02-28T00:31:25.711Z,6.70
2019-02-28T00:34:05.623Z,6.23
2019-02-28T00:36:33.044Z,6.43
2019-02-28T00:39:00.709Z,6.53
2019-02-28T00:41:29.996Z,6.87
2019-02-28T00:43:57.937Z,6.47
2019-02-28T00:46:25.304Z,6.73
2019-02-28T00:48:53.952Z,7.13
2019-02-28T00:51:21.577Z,5.97
2019-02-28T00:53:48.846Z,5.70
2019-02-28T00:56:17.563Z,6.20
2019-02-28T00:58:45.296Z,6.27
2019-02-28T01:01:12.721Z,6.50
2019-02-28T01:03:40.063Z,6.57
2019-02-28T01:06:20.445Z,7.90
2019-02-28T01:08:47.891Z,7.53
2019-02-28T01:11:15.191Z,7.07
2019-02-28T01:13:42.536Z,7.77
2019-02-28T01:16:09.939Z,7.63
2019-02-28T01:18:56.739Z,6.87
2019-02-28T01:21:24.589Z,7.30
2019-02-28T01:23:52.088Z,6.60
2019-02-28T01:26:19.324Z,7.60
2019-02-28T01:28:46.626Z,6.17
2019-02-28T01:31:13.895Z,7.70
2019-02-28T01:33:42.744Z,8.07
2019-02-28T01:36:12.273Z,7.40
2019-02-28T01:38:39.247Z,7.17
2019-02-28T01:41:08.376Z,7.80
2019-02-28T01:43:35.765Z,7.30
2019-02-28T01:46:03.097Z,7.17
2019-02-28T01:48:30.469Z,7.40
2019-02-28T01:51:10.588Z,8.20
2019-02-28T01:53:38.033Z,7.57
2019-02-28T01:56:05.375Z,6.73
2019-02-28T01:58:33.809Z,8.03
2019-02-28T02:01:01.130Z,8.37
2019-02-28T02:03:28.436Z,7.90
2019-02-28T02:05:55.720Z,8.07
2019-02-28T02:08:23.033Z,8.23
2019-02-28T02:10:54.968Z,8.47
2019-02-28T02:13:21.859Z,8.37
2019-02-28T02:15:51.404Z,8.73
2019-02-28T02:18:18.321Z,8.13
2019-02-28T02:20:45.582Z,9.30
2019-02-28T02:23:17.821Z,9.07
2019-02-28T02:25:42.092Z,8.83
2019-02-28T02:28:09.398Z,8.67
2019-02-28T02:30:50.937Z,9.17
2019-02-28T02:33:32.402Z,9.13
2019-02-28T02:36:01.441Z,9.27
2019-02-28T02:38:28.704Z,8.43
2019-02-28T02:41:00.455Z,8.70
2019-02-28T02:43:26.342Z,9.33
2019-02-28T02:46:06.453Z,9.87
2019-02-28T02:48:33.794Z,9.47
2019-02-28T02:51:01.032Z,9.77
2019-02-28T02:53:28.467Z,10.83
2019-02-28T02:55:55.760Z,10.90
2019-02-28T02:58:27.988Z,11.37
2019-02-28T03:00:53.521Z,10.93
2019-02-28T03:03:20.811Z,10.53
2019-02-28T03:05:49.197Z,11.23
2019-02-28T03:08:16.508Z,11.10
2019-02-28T03:10:43.768Z,11.47
2019-02-28T03:13:11.064Z,10.70
2019-02-28T03:15:38.354Z,11.70
2019-02-28T03:18:05.689Z,10.53
2019-02-28T03:20:32.949Z,12.27
2019-02-28T03:23:01.959Z,11.43
2019-02-28T03:25:29.407Z,11.07
2019-02-28T03:27:56.933Z,12.43
2019-02-28T03:30:31.892Z,12.87
2019-02-28T03:32:53.533Z,12.33
2019-02-28T03:35:20.901Z,11.23
2019-02-28T03:38:01.322Z,11.13
2019-02-28T03:40:28.907Z,12.63
2019-02-28T03:42:56.344Z,13.43
2019-02-28T03:45:23.696Z,12.23
2019-02-28T03:47:51.010Z,12.90
2019-02-28T03:50:22.061Z,13.00
2019-02-28T03:52:47.736Z,13.17
2019-02-28T03:55:27.529Z,14.30
2019-02-28T03:57:54.873Z,14.07
2019-02-28T04:00:22.323Z,12.53
2019-02-28T04:02:57.047Z,13.53
2019-02-28T04:05:26.702Z,13.10
2019-02-28T04:07:52.816Z,12.67
2019-02-28T04:10:22.146Z,11.57
2019-02-28T04:12:47.225Z,13.27
2019-02-28T04:15:14.877Z,14.20
2019-02-28T04:17:42.262Z,13.57
2019-02-28T04:20:09.660Z,15.53
2019-02-28T04:22:37.069Z,15.67
2019-02-28T04:25:04.418Z,15.73
2019-02-28T04:27:31.712Z,15.33
2019-02-28T04:30:05.888Z,15.63
2019-02-28T04:32:28.231Z,16.70
2019-02-28T04:34:55.573Z,14.83
2019-02-28T04:37:22.921Z,14.23
2019-02-28T04:39:53.344Z,14.83
2019-02-28T04:42:20.617Z,15.67
2019-02-28T04:44:49.187Z,15.63
2019-02-28T04:47:17.164Z,15.77
2019-02-28T04:49:44.476Z,15.27
2019-02-28T04:52:12.788Z,14.93
2019-02-28T04:54:40.275Z,18.63
2019-02-28T04:57:07.548Z,17.27
2019-02-28T04:59:34.954Z,17.90
2019-02-28T05:02:02.302Z,19.13
2019-02-28T05:04:29.597Z,16.90
2019-02-28T05:06:56.877Z,18.33
2019-02-28T05:09:24.168Z,20.00
2019-02-28T05:11:51.418Z,16.23
2019-02-28T05:14:23.360Z,17.53
2019-02-28T05:16:48.989Z,17.63
2019-02-28T05:19:17.333Z,17.93
2019-02-28T05:21:44.788Z,18.23
2019-02-28T05:24:12.064Z,18.77
2019-02-28T05:26:39.381Z,22.77
2019-02-28T05:29:06.686Z,21.43
2019-02-28T05:31:34.038Z,23.47
2019-02-28T05:34:01.471Z,21.50
2019-02-28T05:36:28.759Z,21.13
2019-02-28T05:38:56.527Z,23.57
2019-02-28T05:41:24.634Z,23.23
2019-02-28T05:43:51.880Z,23.53
2019-02-28T05:46:20.257Z,27.10
2019-02-28T05:48:48.372Z,26.53
2019-02-28T05:51:15.685Z,22.50
2019-02-28T05:53:43.023Z,22.37
2019-02-28T05:56:10.289Z,24.17
2019-02-28T05:58:37.628Z,27.30
2019-02-28T06:01:05.637Z,25.40
2019-02-28T06:03:33.021Z,24.43
2019-02-28T06:06:00.260Z,24.90
2019-02-28T06:08:27.590Z,26.67
2019-02-28T06:10:56.039Z,27.63
2019-02-28T06:13:25.438Z,24.50
2019-02-28T06:15:52.701Z,24.40
2019-02-28T06:18:20.043Z,26.77
2019-02-28T06:20:50.991Z,24.80
2019-02-28T06:23:16.587Z,24.43
2019-02-28T06:25:43.913Z,26.13
2019-02-28T06:28:12.063Z,25.87
2019-02-28T06:30:41.455Z,27.33
2019-02-28T06:33:08.757Z,26.83
2019-02-28T06:35:36.070Z,26.00
2019-02-28T06:38:22.785Z,24.73
2019-02-28T06:40:50.156Z,26.50
2019-02-28T06:43:18.818Z,28.50
2019-02-28T06:45:46.848Z,27.67
2019-02-28T06:48:14.116Z,30.30
2019-02-28T06:50:41.417Z,27.00
2019-02-28T06:53:08.679Z,25.90
2019-02-28T06:55:39.585Z,29.67
2019-02-28T06:58:07.050Z,27.03
2019-02-28T07:00:34.357Z,25.20
2019-02-28T07:03:03.303Z,27.00
2019-02-28T07:05:30.822Z,28.80
2019-02-28T07:07:58.153Z,29.80
2019-02-28T07:10:25.432Z,27.77
2019-02-28T07:12:52.653Z,30.13
2019-02-28T07:15:23.721Z,29.43
2019-02-28T07:17:50.274Z,31.40
2019-02-28T07:20:17.680Z,31.53
2019-02-28T07:22:45.044Z,30.40
2019-02-28T07:25:12.787Z,30.60
2019-02-28T07:27:41.344Z,29.50
2019-02-28T07:30:11.164Z,30.73
2019-02-28T07:32:38.465Z,30.80
2019-02-28T07:35:05.796Z,32.27
2019-02-28T07:37:33.184Z,30.47
2019-02-28T07:40:00.517Z,31.10
2019-02-28T07:42:27.838Z,31.20
2019-02-28T07:44:58.030Z,31.63
2019-02-28T07:47:25.437Z,31.30
2019-02-28T07:49:53.035Z,33.13
2019-02-28T07:52:20.476Z,28.10
2019-02-28T07:54:51.552Z,33.23
2019-02-28T07:57:17.980Z,33.33
2019-02-28T07:59:46.583Z,33.80
2019-02-28T08:02:13.949Z,31.53
2019-02-28T08:04:43.598Z,32.93
2019-02-28T08:07:11.407Z,37.20
2019-02-28T08:09:40.690Z,33.07
2019-02-28T08:12:08.798Z,39.70
2019-02-28T08:14:36.125Z,35.97
2019-02-28T08:17:05.480Z,37.13
2019-02-28T08:19:33.393Z,38.73
2019-02-28T08:22:00.669Z,41.87
2019-02-28T08:24:27.972Z,41.90
2019-02-28T08:26:55.536Z,40.87
2019-02-28T08:29:22.770Z,40.37
2019-02-28T08:31:50.088Z,40.20
2019-02-28T08:34:17.425Z,42.90
2019-02-28T08:36:46.911Z,39.23
2019-02-28T08:39:16.266Z,40.30
2019-02-28T08:41:43.788Z,40.87
2019-02-28T08:44:11.220Z,39.70
2019-02-28T08:46:38.561Z,40.63
2019-02-28T08:49:07.203Z,40.60
2019-02-28T08:51:36.570Z,41.47
2019-02-28T08:54:06.000Z,42.20
2019-02-28T08:56:33.094Z,40.00
2019-02-28T08:59:01.503Z,40.27
2019-02-28T09:01:30.641Z,40.70
2019-02-28T09:03:59.846Z,41.27
2019-02-28T09:06:27.690Z,41.13
2019-02-28T09:08:56.615Z,41.50
2019-02-28T09:11:24.087Z,39.33
2019-02-28T09:13:51.368Z,42.93
2019-02-28T09:16:18.703Z,41.00
2019-02-28T09:18:48.473Z,41.13
2019-02-28T09:21:18.308Z,41.70
2019-02-28T09:23:45.077Z,42.80
2019-02-28T09:26:12.532Z,40.90
2019-02-28T09:28:44.376Z,42.87
2019-02-28T09:31:10.808Z,43.40
2019-02-28T09:33:38.089Z,43.03
2019-02-28T09:36:05.333Z,39.40
2019-02-28T09:38:33.092Z,43.40
2019-02-28T09:41:01.402Z,43.07
2019-02-28T09:43:29.738Z,43.43
2019-02-28T09:45:56.989Z,38.40
2019-02-28T09:48:24.306Z,40.97
2019-02-28T09:50:58.019Z,38.57
2019-02-28T09:53:20.759Z,39.97
2019-02-28T09:55:48.058Z,40.37
2019-02-28T09:58:15.358Z,39.40
2019-02-28T10:00:43.231Z,35.70
2019-02-28T10:03:15.500Z,41.43
2019-02-28T10:05:43.180Z,40.67
2019-02-28T10:08:10.625Z,39.70
2019-02-28T10:10:39.165Z,39.87
2019-02-28T10:13:06.430Z,43.03
2019-02-28T10:15:33.804Z,40.00
2019-02-28T10:18:04.356Z,38.23
2019-02-28T10:20:30.413Z,40.47
2019-02-28T10:22:57.709Z,37.67
2019-02-28T10:25:26.095Z,37.20
2019-02-28T10:27:54.615Z,40.07
2019-02-28T10:30:31.162Z,38.73
2019-02-28T10:32:51.735Z,39.97
2019-02-28T10:35:19.141Z,39.07
2019-02-28T10:37:46.564Z,37.93
2019-02-28T10:40:17.712Z,36.90
2019-02-28T10:42:45.556Z,36.07
2019-02-28T10:45:13.487Z,36.97
2019-02-28T10:47:40.782Z,39.97
2019-02-28T10:50:14.192Z,39.40
2019-02-28T10:52:41.490Z,37.13
2019-02-28T10:55:28.920Z,37.83
2019-02-28T10:57:56.297Z,37.97
2019-02-28T11:00:29.533Z,36.73
2019-02-28T11:02:59.193Z,37.43
2019-02-28T11:05:28.886Z,36.03
2019-02-28T11:07:56.816Z,36.47
2019-02-28T11:10:29.001Z,36.80
2019-02-28T11:12:58.329Z,37.37
2019-02-28T11:15:26.024Z,35.27
2019-02-28T11:17:53.564Z,37.97
2019-02-28T11:20:22.313Z,37.67
2019-02-28T11:22:50.348Z,38.17
2019-02-28T11:25:18.278Z,39.13
2019-02-28T11:27:45.648Z,35.20
2019-02-28T11:30:14.313Z,36.37
2019-02-28T11:32:42.014Z,34.93
2019-02-28T11:35:09.673Z,37.07
2019-02-28T11:37:38.845Z,39.23
2019-02-28T11:40:08.499Z,37.77
2019-02-28T11:42:35.968Z,35.93
2019-02-28T11:45:03.784Z,35.43
2019-02-28T11:47:31.616Z,37.63
2019-02-28T11:50:00.323Z,36.23
2019-02-28T11:52:28.169Z,37.47
2019-02-28T11:54:55.488Z,39.27
2019-02-28T11:57:22.945Z,38.20
2019-02-28T11:59:51.443Z,38.97
2019-02-28T12:02:20.256Z,39.80
2019-02-28T12:04:48.140Z,36.07
2019-02-28T12:07:15.740Z,40.83
2019-02-28T12:09:43.032Z,41.50
2019-02-28T12:12:11.164Z,39.33
2019-02-28T12:14:38.766Z,39.67
2019-02-28T12:17:06.086Z,39.27
2019-02-28T12:19:33.425Z,39.60
2019-02-28T12:22:00.823Z,38.23
2019-02-28T12:24:29.372Z,37.43
2019-02-28T12:26:57.480Z,38.27
2019-02-28T12:29:24.863Z,39.10
2019-02-28T12:31:52.323Z,38.67
2019-02-28T12:34:19.666Z,36.97
2019-02-28T12:36:49.382Z,36.30
2019-02-28T12:39:16.132Z,35.87
2019-02-28T12:41:43.456Z,39.03
2019-02-28T12:44:12.413Z,36.23
2019-02-28T12:46:43.315Z,35.73
2019-02-28T12:49:10.450Z,39.93
2019-02-28T12:51:39.721Z,39.27
2019-02-28T12:54:06.901Z,38.37
2019-02-28T12:56:34.185Z,36.80
2019-02-28T12:59:01.495Z,38.07
2019-02-28T13:01:28.800Z,36.07
2019-02-28T13:04:00.621Z,37.93
2019-02-28T13:06:25.261Z,39.67
2019-02-28T13:08:54.141Z,36.07
2019-02-28T13:11:21.424Z,36.57
2019-02-28T13:13:48.905Z,39.17
2019-02-28T13:16:17.440Z,37.07
2019-02-28T13:18:45.632Z,35.83
2019-02-28T13:21:12.931Z,36.23
2019-02-28T13:23:41.345Z,38.03
2019-02-28T13:26:08.705Z,38.53
2019-02-28T13:28:36.024Z,34.60
2019-02-28T13:31:03.424Z,35.47
2019-02-28T13:33:30.835Z,34.97
2019-02-28T13:35:58.182Z,37.30
2019-02-28T13:38:25.481Z,37.00
2019-02-28T13:40:52.812Z,36.77
2019-02-28T13:43:22.441Z,34.77
2019-02-28T13:45:50.659Z,33.23
2019-02-28T13:48:26.267Z,37.47
2019-02-28T13:50:49.319Z,37.97
2019-02-28T13:53:17.989Z,38.30
2019-02-28T13:55:46.024Z,34.90
2019-02-28T13:58:13.403Z,38.90
2019-02-28T14:00:45.564Z,39.63
2019-02-28T14:03:10.484Z,39.43
2019-02-28T14:05:40.928Z,37.23
2019-02-28T14:08:11.466Z,40.10
2019-02-28T14:10:36.416Z,40.30
2019-02-28T14:13:05.119Z,40.93
2019-02-28T14:15:37.826Z,37.87
2019-02-28T14:18:07.576Z,39.87
2019-02-28T14:20:35.821Z,39.60
2019-02-28T14:23:03.190Z,39.27
2019-02-28T14:25:30.704Z,39.60
2019-02-28T14:28:00.240Z,39.87
2019-02-28T14:30:28.799Z,40.97
2019-02-28T14:32:56.175Z,39.87
2019-02-28T14:35:23.877Z,38.13
2019-02-28T14:37:55.313Z,40.20
2019-02-28T14:40:22.308Z,40.70
2019-02-28T14:42:50.058Z,40.00
2019-02-28T14:45:18.362Z,40.80
2019-02-28T14:47:45.898Z,40.57
2019-02-28T14:50:15.398Z,39.37
2019-02-28T14:52:44.117Z,39.67
2019-02-28T14:55:13.320Z,39.63
2019-02-28T14:57:40.693Z,42.70
2019-02-28T15:00:11.492Z,39.23
2019-02-28T15:02:38.964Z,42.10
2019-02-28T15:05:08.743Z,42.10
2019-02-28T15:07:38.786Z,40.17
2019-02-28T15:10:08.743Z,41.27
2019-02-28T15:12:36.340Z,43.00
2019-02-28T15:15:05.348Z,36.80
2019-02-28T15:17:32.787Z,40.27
2019-02-28T15:20:00.363Z,41.17
2019-02-28T15:22:27.769Z,43.90
2019-02-28T15:24:55.170Z,41.80
2019-02-28T15:27:22.526Z,39.23
2019-02-28T15:29:51.195Z,42.67
2019-02-28T15:32:18.565Z,43.17
2019-02-28T15:34:45.978Z,40.60
2019-02-28T15:37:14.504Z,41.20
2019-02-28T15:39:41.798Z,43.57
2019-02-28T15:42:09.167Z,39.27
2019-02-28T15:44:36.500Z,38.60
2019-02-28T15:47:05.036Z,44.23
2019-02-28T15:49:32.344Z,39.80
2019-02-28T15:52:01.890Z,41.80
2019-02-28T15:54:28.890Z,37.83
2019-02-28T15:56:56.457Z,39.17
2019-02-28T15:59:23.906Z,43.17
2019-02-28T16:01:51.358Z,42.57
2019-02-28T16:04:18.657Z,39.70
2019-02-28T16:06:45.935Z,37.27
2019-02-28T16:09:18.765Z,41.97
2019-02-28T16:11:45.424Z,42.17
2019-02-28T16:14:14.789Z,41.07
2019-02-28T16:16:42.205Z,43.63
2019-02-28T16:19:10.759Z,43.70
2019-02-28T16:21:40.694Z,44.00
2019-02-28T16:24:07.446Z,43.20
2019-02-28T16:26:34.796Z,38.57
2019-02-28T16:29:02.124Z,44.23
2019-02-28T16:31:29.561Z,38.37
2019-02-28T16:34:04.885Z,41.73
2019-02-28T16:36:26.618Z,41.30
2019-02-28T16:38:53.959Z,44.63
2019-02-28T16:41:21.348Z,43.07
2019-02-28T16:43:48.940Z,43.60
2019-02-28T16:46:16.255Z,44.77
2019-02-28T16:48:43.759Z,40.67
2019-02-28T16:51:11.128Z,37.43
2019-02-28T16:53:38.437Z,40.73
2019-02-28T16:56:06.428Z,46.63
2019-02-28T16:58:34.034Z,39.97
2019-02-28T17:01:01.449Z,38.00
2019-02-28T17:03:28.921Z,40.07
2019-02-28T17:05:58.407Z,38.07
2019-02-28T17:08:27.885Z,44.40
2019-02-28T17:10:55.170Z,41.33
2019-02-28T17:13:28.390Z,41.40
2019-02-28T17:16:14.064Z,39.30
2019-02-28T17:18:41.556Z,42.90
2019-02-28T17:21:08.989Z,38.77
2019-02-28T17:23:36.881Z,40.80
2019-02-28T17:26:05.708Z,41.67
2019-02-28T17:28:53.177Z,44.77
2019-02-28T17:31:39.223Z,42.20
2019-02-28T17:34:06.856Z,39.57
2019-02-28T17:36:34.235Z,39.10
2019-02-28T17:39:01.698Z,40.17
2019-02-28T17:41:34.040Z,39.73
2019-02-28T17:44:10.543Z,40.40
2019-02-28T17:46:37.885Z,41.67
2019-02-28T17:49:45.554Z,46.47
2019-02-28T17:52:22.176Z,41.50
2019-02-28T17:55:36.464Z,41.37
2019-02-28T17:58:20.628Z,42.00
2019-02-28T18:01:16.834Z,40.20
2019-02-28T18:04:20.929Z,47.23
2019-02-28T18:07:15.586Z,43.73
2019-02-28T18:10:08.847Z,47.63
2019-02-28T18:13:00.380Z,40.10
2019-02-28T18:16:29.080Z,42.87
2019-02-28T18:19:42.106Z,45.30
2019-02-28T18:22:36.638Z,43.53
2019-02-28T18:26:04.396Z,43.37
2019-02-28T18:29:03.273Z,42.67
2019-02-28T18:31:30.629Z,43.77
2019-02-28T18:34:03.969Z,45.23
2019-02-28T18:36:31.907Z,46.33
2019-02-28T18:38:59.552Z,44.70
2019-02-28T18:41:28.320Z,47.27
2019-02-28T18:44:00.061Z,44.33
2019-02-28T18:46:29.496Z,47.20
2019-02-28T18:48:56.094Z,48.70
2019-02-28T18:51:23.713Z,48.37
2019-02-28T18:53:51.278Z,45.80
2019-02-28T18:56:18.918Z,42.13
2019-02-28T18:58:46.643Z,43.17
2019-02-28T19:01:14.595Z,44.03
2019-02-28T19:03:42.417Z,41.53
2019-02-28T19:06:12.683Z,44.33
2019-02-28T19:08:49.940Z,46.40
2019-02-28T19:11:20.333Z,44.17
2019-02-28T19:13:54.346Z,47.13
2019-02-28T19:16:26.082Z,43.60
2019-02-28T19:18:53.929Z,47.67
2019-02-28T19:21:22.376Z,48.10
2019-02-28T19:23:53.368Z,51.07
2019-02-28T19:26:24.835Z,48.23
2019-02-28T19:28:54.919Z,50.23
2019-02-28T19:31:22.742Z,46.00
2019-02-28T19:33:56.132Z,45.73
2019-02-28T19:36:25.646Z,46.10
2019-02-28T19:38:53.350Z,45.13
2019-02-28T19:41:20.946Z,49.87
2019-02-28T19:43:48.859Z,50.77
2019-02-28T19:46:17.819Z,55.07
2019-02-28T19:48:45.493Z,56.97
2019-02-28T19:51:13.261Z,56.70
2019-02-28T19:53:42.014Z,55.53
2019-02-28T19:56:09.534Z,59.73
2019-02-28T19:58:39.088Z,63.33
2019-02-28T20:01:07.908Z,62.13
2019-02-28T20:03:35.510Z,62.43
2019-02-28T20:06:03.222Z,65.43
2019-02-28T20:08:31.126Z,70.73
2019-02-28T20:10:59.142Z,62.83
2019-02-28T20:13:26.804Z,66.20
2019-02-28T20:15:54.519Z,69.33
2019-02-28T20:18:22.238Z,65.97
2019-02-28T20:20:49.997Z,55.13
2019-02-28T20:23:17.725Z,58.60
2019-02-28T20:25:45.603Z,61.20
2019-02-28T20:28:13.443Z,55.23
2019-02-28T20:30:42.219Z,52.53
2019-02-28T20:33:09.853Z,52.70
2019-02-28T20:35:37.639Z,49.43
2019-02-28T20:38:05.528Z,48.87
2019-02-28T20:40:35.120Z,49.53
2019-02-28T20:43:04.501Z,46.43
2019-02-28T20:45:32.362Z,42.30
2019-02-28T20:48:00.050Z,42.70
2019-02-28T20:50:30.689Z,41.97
2019-02-28T20:52:59.478Z,43.87
2019-02-28T20:55:27.219Z,47.67
2019-02-28T20:57:56.882Z,48.03
2019-02-28T21:00:26.091Z,47.37
2019-02-28T21:02:53.941Z,48.27
2019-02-28T21:05:23.117Z,46.60
2019-02-28T21:07:51.099Z,45.33
2019-02-28T21:10:18.711Z,42.93
2019-02-28T21:12:48.276Z,41.80
2019-02-28T21:15:15.974Z,41.23
2019-02-28T21:17:43.684Z,38.47
2019-02-28T21:20:12.301Z,35.13
2019-02-28T21:22:40.552Z,33.30
2019-02-28T21:25:09.721Z,31.87
2019-02-28T21:27:39.915Z,28.20
2019-02-28T21:30:11.623Z,30.10
2019-02-28T21:32:39.465Z,26.73
2019-02-28T21:35:07.122Z,27.13
2019-02-28T21:37:36.441Z,25.40
2019-02-28T21:40:06.629Z,26.27
2019-02-28T21:42:36.196Z,27.43
2019-02-28T21:45:05.213Z,27.30
2019-02-28T21:47:34.738Z,30.60
2019-02-28T21:50:04.158Z,28.83
2019-02-28T21:52:31.807Z,29.90
2019-02-28T21:54:59.462Z,28.90
2019-02-28T21:57:27.226Z,28.50
2019-02-28T21:59:54.727Z,28.43
2019-02-28T22:02:23.434Z,29.43
2019-02-28T22:04:51.013Z,31.23
2019-02-28T22:07:18.740Z,32.73
2019-02-28T22:09:48.115Z,29.97
2019-02-28T22:12:15.762Z,33.07
2019-02-28T22:14:43.484Z,34.03
2019-02-28T22:17:11.073Z,34.80
2019-02-28T22:19:38.766Z,34.07
2019-02-28T22:22:06.454Z,35.97
2019-02-28T22:24:35.416Z,38.50
2019-02-28T22:27:03.041Z,33.40
2019-02-28T22:29:31.792Z,35.80
2019-02-28T22:32:27.787Z,38.80
2019-02-28T22:35:03.408Z,42.30
2019-02-28T22:37:31.165Z,38.50
2019-02-28T22:39:58.716Z,37.97
2019-02-28T22:42:28.024Z,44.60
2019-02-28T22:44:55.592Z,42.80
2019-02-28T22:47:24.328Z,45.63
2019-02-28T22:49:51.990Z,41.93
2019-02-28T22:52:19.644Z,47.40
2019-02-28T22:54:47.212Z,42.73
2019-02-28T22:57:16.639Z,47.97
2019-02-28T22:59:44.100Z,49.30
2019-02-28T23:02:11.748Z,45.33
2019-02-28T23:04:39.331Z,45.10
2019-02-28T23:07:07.996Z,44.27
2019-02-28T23:09:37.326Z,46.50
2019-02-28T23:12:04.950Z,45.63
2019-02-28T23:14:33.826Z,46.60
2019-02-28T23:17:01.321Z,47.10
2019-02-28T23:19:28.944Z,41.23
2019-02-28T23:21:58.399Z,44.77
2019-02-28T23:24:26.154Z,47.23
2019-02-28T23:27:10.959Z,42.87
2019-02-28T23:29:41.125Z,43.13
2019-02-28T23:32:31.249Z,41.83
2019-02-28T23:34:59.046Z,39.57
2019-02-28T23:37:26.673Z,38.23
2019-02-28T23:39:54.317Z,39.17
2019-02-28T23:42:21.891Z,35.87
2019-02-28T23:44:49.370Z,35.30
2019-02-28T23:47:16.859Z,30.27
2019-02-28T23:49:44.506Z,26.50
2019-02-28T23:52:12.149Z,23.63
2019-02-28T23:54:39.683Z,21.83
2019-02-28T23:57:07.297Z,21.90
